sensor_id;sensor_type;location;lat;lon;timestamp;pressure;altitude;pressure_sealevel;temperature;humidity
69524;BME280;56723;42.694;23.286;2023-04-28T08:53:38;95421.13;;;10.98;36.90
69524;BME280;56723;42.694;23.286;2023-04-28T08:56:31;95434.16;;;11.22;36.24
69524;BME280;56723;42.694;23.286;2023-04-28T08:59:03;95429.81;;;11.39;35.29
69524;BME280;56723;42.694;23.286;2023-04-28T09:01:31;95424.81;;;11.45;34.91
69524;BME280;56723;42.694;23.286;2023-04-28T09:04:01;95424.81;;;11.45;35.55
69524;BME280;56723;42.694;23.286;2023-04-28T09:06:37;95423.34;;;11.59;34.81
69524;BME280;56723;42.694;23.286;2023-04-28T09:11:54;95426.16;;;11.82;33.71
69524;BME280;56723;42.694;23.286;2023-04-28T09:14:22;95422.22;;;11.70;33.34
69524;BME280;56723;42.694;23.286;2023-04-28T09:16:49;95395.13;;;11.64;34.91
69524;BME280;56723;42.694;23.286;2023-04-28T09:19:18;95414.25;;;11.71;33.66
69524;BME280;56723;42.694;23.286;2023-04-28T09:21:48;95410.25;;;11.85;34.38
69524;BME280;56723;42.694;23.286;2023-04-28T09:24:28;95399.84;;;11.93;33.74
69524;BME280;56723;42.694;23.286;2023-04-28T09:27:01;95409.91;;;11.96;32.96
69524;BME280;56723;42.694;23.286;2023-04-28T09:29:29;95407.31;;;12.04;33.68
69524;BME280;56723;42.694;23.286;2023-04-28T09:34:46;95392.97;;;12.25;33.04
69524;BME280;56723;42.694;23.286;2023-04-28T09:37:18;95386.78;;;12.34;33.56
69524;BME280;56723;42.694;23.286;2023-04-28T09:39:47;95373.50;;;12.68;32.68
69524;BME280;56723;42.694;23.286;2023-04-28T09:45:05;95385.53;;;13.00;32.32
69524;BME280;56723;42.694;23.286;2023-04-28T09:47:35;95379.19;;;13.02;31.73
69524;BME280;56723;42.694;23.286;2023-04-28T09:50:04;95377.72;;;13.00;31.87
69524;BME280;56723;42.694;23.286;2023-04-28T09:52:33;95371.31;;;12.88;31.15
69524;BME280;56723;42.694;23.286;2023-04-28T09:55:02;95372.16;;;13.11;30.89
69524;BME280;56723;42.694;23.286;2023-04-28T09:57:30;95371.56;;;13.32;30.82
69524;BME280;56723;42.694;23.286;2023-04-28T09:59:59;95369.00;;;13.46;30.95
69524;BME280;56723;42.694;23.286;2023-04-28T10:02:27;95365.66;;;13.38;30.17
69524;BME280;56723;42.694;23.286;2023-04-28T10:04:57;95345.81;;;13.37;30.07
69524;BME280;56723;42.694;23.286;2023-04-28T10:07:25;95354.81;;;13.34;29.68
69524;BME280;56723;42.694;23.286;2023-04-28T10:09:53;95347.59;;;13.36;29.98
69524;BME280;56723;42.694;23.286;2023-04-28T10:12:21;95349.63;;;13.72;30.53
69524;BME280;56723;42.694;23.286;2023-04-28T10:14:50;95349.28;;;13.52;29.56
69524;BME280;56723;42.694;23.286;2023-04-28T10:17:21;95340.16;;;13.33;30.44
69524;BME280;56723;42.694;23.286;2023-04-28T10:19:49;95343.03;;;13.38;31.00
69524;BME280;56723;42.694;23.286;2023-04-28T10:25:30;95342.41;;;13.74;30.17
69524;BME280;56723;42.694;23.286;2023-04-28T10:27:59;95343.22;;;13.74;29.28
69524;BME280;56723;42.694;23.286;2023-04-28T10:30:26;95334.69;;;13.66;29.34
69524;BME280;56723;42.694;23.286;2023-04-28T10:38:14;95330.16;;;14.12;29.50
69524;BME280;56723;42.694;23.286;2023-04-28T10:40:51;95320.47;;;13.91;27.72
69524;BME280;56723;42.694;23.286;2023-04-28T10:43:37;95317.41;;;14.32;28.98
69524;BME280;56723;42.694;23.286;2023-04-28T10:46:07;95314.56;;;14.41;29.14
69524;BME280;56723;42.694;23.286;2023-04-28T11:03:50;95297.47;;;14.53;29.18
69524;BME280;56723;42.694;23.286;2023-04-28T11:06:25;95299.22;;;15.04;29.20
69524;BME280;56723;42.694;23.286;2023-04-28T11:08:58;95283.31;;;15.20;27.24
69524;BME280;56723;42.694;23.286;2023-04-28T11:11:32;95276.75;;;15.03;27.03
69524;BME280;56723;42.694;23.286;2023-04-28T11:16:48;95271.63;;;14.95;27.69
69524;BME280;56723;42.694;23.286;2023-04-28T11:19:18;95276.22;;;15.14;27.90
69524;BME280;56723;42.694;23.286;2023-04-28T11:21:46;95284.28;;;15.40;27.33
69524;BME280;56723;42.694;23.286;2023-04-28T11:24:14;95274.88;;;15.39;26.88
69524;BME280;56723;42.694;23.286;2023-04-28T11:26:41;95254.09;;;14.88;27.11
69524;BME280;56723;42.694;23.286;2023-04-28T11:29:08;95268.91;;;14.81;27.33
69524;BME280;56723;42.694;23.286;2023-04-28T11:31:36;95256.47;;;14.83;27.39
69524;BME280;56723;42.694;23.286;2023-04-28T11:34:10;95266.22;;;15.17;27.83
69524;BME280;56723;42.694;23.286;2023-04-28T11:36:41;95265.44;;;15.45;27.74
69524;BME280;56723;42.694;23.286;2023-04-28T11:39:10;95266.63;;;15.64;27.50
69524;BME280;56723;42.694;23.286;2023-04-28T11:41:42;95248.91;;;15.59;26.95
69524;BME280;56723;42.694;23.286;2023-04-28T11:44:17;95258.41;;;15.67;26.95
69524;BME280;56723;42.694;23.286;2023-04-28T11:49:45;95246.53;;;15.92;26.88
69524;BME280;56723;42.694;23.286;2023-04-28T11:52:12;95247.03;;;16.15;26.52
69524;BME280;56723;42.694;23.286;2023-04-28T11:54:39;95241.31;;;15.92;26.77
69524;BME280;56723;42.694;23.286;2023-04-28T11:57:17;95233.78;;;16.17;26.48
69524;BME280;56723;42.694;23.286;2023-04-28T11:59:44;95229.81;;;16.34;26.89
69524;BME280;56723;42.694;23.286;2023-04-28T12:02:12;95235.94;;;16.54;25.92
69524;BME280;56723;42.694;23.286;2023-04-28T12:04:41;95241.19;;;16.61;26.11
69524;BME280;56723;42.694;23.286;2023-04-28T12:07:09;95230.25;;;16.31;26.51
69524;BME280;56723;42.694;23.286;2023-04-28T12:09:42;95230.44;;;16.30;27.72
69524;BME280;56723;42.694;23.286;2023-04-28T12:12:12;95223.25;;;16.45;27.00
69524;BME280;56723;42.694;23.286;2023-04-28T12:15:15;95224.34;;;16.70;26.94
69524;BME280;56723;42.694;23.286;2023-04-28T12:17:44;95217.78;;;16.40;25.98
69524;BME280;56723;42.694;23.286;2023-04-28T12:20:32;95229.66;;;16.42;25.89
69524;BME280;56723;42.694;23.286;2023-04-28T12:23:00;95220.59;;;16.32;26.24
69524;BME280;56723;42.694;23.286;2023-04-28T12:25:28;95215.16;;;16.40;25.83
69524;BME280;56723;42.694;23.286;2023-04-28T12:28:05;95205.75;;;16.52;25.83
69524;BME280;56723;42.694;23.286;2023-04-28T12:30:36;95210.81;;;16.60;25.54
69524;BME280;56723;42.694;23.286;2023-04-28T12:33:23;95198.97;;;16.71;25.93
69524;BME280;56723;42.694;23.286;2023-04-28T12:35:50;95201.59;;;16.64;26.77
69524;BME280;56723;42.694;23.286;2023-04-28T12:38:19;95180.00;;;16.49;25.65
69524;BME280;56723;42.694;23.286;2023-04-28T12:40:46;95184.56;;;16.34;26.44
69524;BME280;56723;42.694;23.286;2023-04-28T12:43:13;95178.19;;;16.56;26.30
69524;BME280;56723;42.694;23.286;2023-04-28T12:45:40;95188.03;;;16.54;25.92
69524;BME280;56723;42.694;23.286;2023-04-28T12:48:07;95187.44;;;16.58;26.52
69524;BME280;56723;42.694;23.286;2023-04-28T12:50:34;95181.28;;;16.73;26.42
69524;BME280;56723;42.694;23.286;2023-04-28T12:53:01;95175.66;;;16.69;26.43
69524;BME280;56723;42.694;23.286;2023-04-28T12:55:28;95181.63;;;16.56;26.74
69524;BME280;56723;42.694;23.286;2023-04-28T12:57:56;95172.00;;;16.64;26.23
69524;BME280;56723;42.694;23.286;2023-04-28T13:00:23;95172.59;;;16.72;27.44
69524;BME280;56723;42.694;23.286;2023-04-28T13:02:51;95168.00;;;16.94;26.18
69524;BME280;56723;42.694;23.286;2023-04-28T13:05:19;95168.41;;;16.91;26.31
69524;BME280;56723;42.694;23.286;2023-04-28T13:07:49;95166.41;;;17.13;25.95
69524;BME280;56723;42.694;23.286;2023-04-28T13:10:16;95160.16;;;17.07;25.88
69524;BME280;56723;42.694;23.286;2023-04-28T13:12:44;95165.19;;;17.09;25.66
69524;BME280;56723;42.694;23.286;2023-04-28T13:15:11;95165.19;;;16.82;26.10
69524;BME280;56723;42.694;23.286;2023-04-28T13:17:38;95168.41;;;16.91;26.59
69524;BME280;56723;42.694;23.286;2023-04-28T13:20:06;95162.56;;;17.09;26.20
69524;BME280;56723;42.694;23.286;2023-04-28T13:22:33;95158.34;;;17.14;26.16
69524;BME280;56723;42.694;23.286;2023-04-28T13:25:00;95157.16;;;17.23;27.36
69524;BME280;56723;42.694;23.286;2023-04-28T13:27:27;95162.38;;;17.43;26.32
69524;BME280;56723;42.694;23.286;2023-04-28T13:29:56;95154.69;;;17.61;26.68
69524;BME280;56723;42.694;23.286;2023-04-28T13:32:24;95158.72;;;17.71;25.39
69524;BME280;56723;42.694;23.286;2023-04-28T13:34:51;95156.34;;;17.43;25.15
69524;BME280;56723;42.694;23.286;2023-04-28T13:37:18;95147.84;;;17.27;25.83
69524;BME280;56723;42.694;23.286;2023-04-28T13:39:45;95148.66;;;17.35;25.67
69524;BME280;56723;42.694;23.286;2023-04-28T13:42:12;95159.94;;;17.48;25.49
69524;BME280;56723;42.694;23.286;2023-04-28T13:44:39;95145.22;;;17.47;25.11
69524;BME280;56723;42.694;23.286;2023-04-28T13:47:06;95147.06;;;17.40;25.31
69524;BME280;56723;42.694;23.286;2023-04-28T13:49:35;95133.97;;;17.27;25.04
69524;BME280;56723;42.694;23.286;2023-04-28T13:52:03;95143.81;;;17.58;24.69
69524;BME280;56723;42.694;23.286;2023-04-28T13:54:30;95139.34;;;17.72;25.20
69524;BME280;56723;42.694;23.286;2023-04-28T13:56:57;95139.03;;;17.22;25.47
69524;BME280;56723;42.694;23.286;2023-04-28T13:59:24;95131.53;;;17.39;25.43
69524;BME280;56723;42.694;23.286;2023-04-28T14:01:51;95135.75;;;17.59;25.43
69524;BME280;56723;42.694;23.286;2023-04-28T14:04:18;95130.84;;;17.83;26.62
69524;BME280;56723;42.694;23.286;2023-04-28T14:06:45;95122.75;;;17.91;25.27
69524;BME280;56723;42.694;23.286;2023-04-28T14:09:12;95128.72;;;18.11;24.93
69524;BME280;56723;42.694;23.286;2023-04-28T14:11:39;95121.28;;;17.37;25.30
69524;BME280;56723;42.694;23.286;2023-04-28T14:14:06;95134.94;;;17.52;25.76
69524;BME280;56723;42.694;23.286;2023-04-28T14:16:33;95127.22;;;17.84;25.34
69524;BME280;56723;42.694;23.286;2023-04-28T14:19:00;95130.84;;;17.83;25.81
69524;BME280;56723;42.694;23.286;2023-04-28T14:21:27;95132.09;;;17.74;25.14
69524;BME280;56723;42.694;23.286;2023-04-28T14:23:54;95117.72;;;17.96;24.56
69524;BME280;56723;42.694;23.286;2023-04-28T14:26:22;95133.16;;;18.11;24.20
69524;BME280;56723;42.694;23.286;2023-04-28T14:29:08;95114.28;;;17.95;24.36
69524;BME280;56723;42.694;23.286;2023-04-28T14:31:35;95120.59;;;17.75;24.99
69524;BME280;56723;42.694;23.286;2023-04-28T14:34:04;95116.75;;;17.77;24.96
69524;BME280;56723;42.694;23.286;2023-04-28T14:36:31;95111.16;;;17.54;25.13
69524;BME280;56723;42.694;23.286;2023-04-28T14:39:00;95112.38;;;17.45;25.58
69524;BME280;56723;42.694;23.286;2023-04-28T14:41:29;95110.56;;;17.45;24.90
69524;BME280;56723;42.694;23.286;2023-04-28T14:43:56;95099.03;;;17.66;25.34
69524;BME280;56723;42.694;23.286;2023-04-28T14:46:23;95090.50;;;17.84;24.61
69524;BME280;56723;42.694;23.286;2023-04-28T14:48:51;95098.88;;;18.06;25.12
69524;BME280;56723;42.694;23.286;2023-04-28T14:51:20;95097.97;;;18.25;24.03
69524;BME280;56723;42.694;23.286;2023-04-28T14:53:47;95101.59;;;18.30;24.31
69524;BME280;56723;42.694;23.286;2023-04-28T14:56:16;95089.41;;;18.43;24.76
69524;BME280;56723;42.694;23.286;2023-04-28T14:58:46;95100.41;;;18.64;24.23
69524;BME280;56723;42.694;23.286;2023-04-28T15:01:14;95101.09;;;18.47;23.84
69524;BME280;56723;42.694;23.286;2023-04-28T15:03:42;95099.63;;;18.19;24.30
69524;BME280;56723;42.694;23.286;2023-04-28T15:06:10;95108.44;;;18.31;24.22
69524;BME280;56723;42.694;23.286;2023-04-28T15:08:37;95101.09;;;18.47;24.07
69524;BME280;56723;42.694;23.286;2023-04-28T15:11:06;95096.06;;;18.45;24.14
69524;BME280;56723;42.694;23.286;2023-04-28T15:13:33;95101.41;;;18.57;24.24
69524;BME280;56723;42.694;23.286;2023-04-28T15:16:01;95092.94;;;18.61;23.78
69524;BME280;56723;42.694;23.286;2023-04-28T15:18:29;95101.88;;;18.54;24.02
69524;BME280;56723;42.694;23.286;2023-04-28T15:20:56;95096.44;;;18.17;24.54
69524;BME280;56723;42.694;23.286;2023-04-28T15:23:23;95092.13;;;18.29;24.99
69524;BME280;56723;42.694;23.286;2023-04-28T15:25:50;95101.19;;;18.27;24.37
69524;BME280;56723;42.694;23.286;2023-04-28T15:28:19;95098.75;;;18.32;24.42
69524;BME280;56723;42.694;23.286;2023-04-28T15:30:46;95085.06;;;18.30;24.40
69524;BME280;56723;42.694;23.286;2023-04-28T15:33:13;95087.88;;;18.28;24.33
69524;BME280;56723;42.694;23.286;2023-04-28T15:35:43;95092.53;;;18.58;24.64
69524;BME280;56723;42.694;23.286;2023-04-28T15:38:10;95093.91;;;18.67;23.73
69524;BME280;56723;42.694;23.286;2023-04-28T15:40:40;95099.03;;;18.55;24.36
69524;BME280;56723;42.694;23.286;2023-04-28T15:43:08;95088.28;;;18.57;24.11
69524;BME280;56723;42.694;23.286;2023-04-28T15:45:35;95093.91;;;18.36;23.88
69524;BME280;56723;42.694;23.286;2023-04-28T15:48:03;95087.75;;;18.17;24.30
69524;BME280;56723;42.694;23.286;2023-04-28T15:50:35;95088.47;;;17.92;24.56
69524;BME280;56723;42.694;23.286;2023-04-28T15:53:02;95090.94;;;17.81;24.49
69524;BME280;56723;42.694;23.286;2023-04-28T15:55:29;95070.41;;;17.78;24.69
69524;BME280;56723;42.694;23.286;2023-04-28T15:57:56;95084.84;;;17.87;24.53
69524;BME280;56723;42.694;23.286;2023-04-28T16:00:23;95085.31;;;17.77;24.90
69524;BME280;56723;42.694;23.286;2023-04-28T16:02:50;95084.50;;;17.77;25.45
69524;BME280;56723;42.694;23.286;2023-04-28T16:05:18;95078.09;;;17.66;24.41
69524;BME280;56723;42.694;23.286;2023-04-28T16:07:45;95086.97;;;17.45;25.19
69524;BME280;56723;42.694;23.286;2023-04-28T16:10:14;95093.41;;;17.62;24.48
69524;BME280;56723;42.694;23.286;2023-04-28T16:12:42;95092.66;;;17.42;25.01
69524;BME280;56723;42.694;23.286;2023-04-28T16:15:11;95095.06;;;17.37;25.08
69524;BME280;56723;42.694;23.286;2023-04-28T16:17:39;95103.97;;;17.10;25.08
69524;BME280;56723;42.694;23.286;2023-04-28T16:20:08;95093.13;;;16.67;25.52
69524;BME280;56723;42.694;23.286;2023-04-28T16:22:36;95093.31;;;16.72;25.48
69524;BME280;56723;42.694;23.286;2023-04-28T16:25:04;95091.31;;;16.67;25.35
69524;BME280;56723;42.694;23.286;2023-04-28T16:27:34;95090.50;;;16.86;25.26
69524;BME280;56723;42.694;23.286;2023-04-28T16:30:02;95094.69;;;16.48;26.18
69524;BME280;56723;42.694;23.286;2023-04-28T16:32:33;95092.41;;;16.18;25.95
69524;BME280;56723;42.694;23.286;2023-04-28T16:35:02;95101.44;;;16.09;26.58
69524;BME280;56723;42.694;23.286;2023-04-28T16:37:29;95094.66;;;16.28;26.39
69524;BME280;56723;42.694;23.286;2023-04-28T16:39:56;95095.28;;;16.43;25.94
69524;BME280;56723;42.694;23.286;2023-04-28T16:42:23;95084.00;;;16.43;26.10
69524;BME280;56723;42.694;23.286;2023-04-28T16:44:58;95092.84;;;16.42;26.29
69524;BME280;56723;42.694;23.286;2023-04-28T16:47:25;95094.88;;;16.40;25.91
69524;BME280;56723;42.694;23.286;2023-04-28T16:49:52;95099.28;;;16.39;26.02
69524;BME280;56723;42.694;23.286;2023-04-28T16:52:20;95099.09;;;16.54;26.08
69524;BME280;56723;42.694;23.286;2023-04-28T16:54:47;95105.56;;;16.58;26.10
69524;BME280;56723;42.694;23.286;2023-04-28T16:57:17;95107.91;;;16.33;26.20
69524;BME280;56723;42.694;23.286;2023-04-28T16:59:43;95086.50;;;15.97;26.58
69524;BME280;56723;42.694;23.286;2023-04-28T17:02:11;95108.19;;;15.84;27.13
69524;BME280;56723;42.694;23.286;2023-04-28T17:04:38;95118.53;;;15.57;27.17
69524;BME280;56723;42.694;23.286;2023-04-28T17:07:06;95117.34;;;15.32;27.78
69524;BME280;56723;42.694;23.286;2023-04-28T17:09:33;95118.00;;;15.13;27.62
69524;BME280;56723;42.694;23.286;2023-04-28T17:12:00;95119.50;;;14.94;28.28
69524;BME280;56723;42.694;23.286;2023-04-28T17:21:00;95122.91;;;14.31;29.22
